createdAt,value
2018-05-21T00:00:43.140Z,15.93
2018-05-21T00:01:43.151Z,15.94
2018-05-21T00:02:43.168Z,15.87
2018-05-21T00:03:43.170Z,15.89
2018-05-21T00:04:43.167Z,15.82
2018-05-21T00:05:43.171Z,15.96
2018-05-21T00:06:43.173Z,15.90
2018-05-21T00:07:43.177Z,15.90
2018-05-21T00:08:43.189Z,15.93
2018-05-21T00:09:43.193Z,15.93
2018-05-21T00:10:43.194Z,16.01
2018-05-21T00:11:43.197Z,15.94
2018-05-21T00:12:43.211Z,16.12
2018-05-21T00:13:43.207Z,16.12
2018-05-21T00:14:43.214Z,15.90
2018-05-21T00:15:43.221Z,16.05
2018-05-21T00:16:43.268Z,16.09
2018-05-21T00:17:43.228Z,15.94
2018-05-21T00:18:43.238Z,15.87
2018-05-21T00:19:43.238Z,16.02
2018-05-21T00:20:43.244Z,16.12
2018-05-21T00:21:43.249Z,15.94
2018-05-21T00:22:43.255Z,15.84
2018-05-21T00:23:43.259Z,16.12
2018-05-21T00:24:43.273Z,16.25
2018-05-21T00:25:43.272Z,16.20
2018-05-21T00:26:43.273Z,15.94
2018-05-21T00:27:43.285Z,15.83
2018-05-21T00:28:43.290Z,15.83
2018-05-21T00:29:43.287Z,15.89
2018-05-21T00:30:43.292Z,16.05
2018-05-21T00:31:43.301Z,15.93
2018-05-21T00:32:43.326Z,16.05
2018-05-21T00:33:43.308Z,16.09
2018-05-21T00:34:43.318Z,16.04
2018-05-21T00:35:43.321Z,16.12
2018-05-21T00:36:43.341Z,16.14
2018-05-21T00:37:43.327Z,16.05
2018-05-21T00:38:43.339Z,15.97
2018-05-21T00:39:43.340Z,15.89
2018-05-21T00:40:43.351Z,15.90
2018-05-21T00:41:43.349Z,15.90
2018-05-21T00:42:43.353Z,16.15
2018-05-21T00:43:43.380Z,16.17
2018-05-21T00:44:43.365Z,15.96
2018-05-21T00:45:43.367Z,15.94
2018-05-21T00:46:43.371Z,15.83
2018-05-21T00:47:43.380Z,15.93
2018-05-21T00:48:43.380Z,15.78
2018-05-21T00:49:43.397Z,15.94
2018-05-21T00:50:43.394Z,16.11
2018-05-21T00:51:43.439Z,16.08
2018-05-21T00:52:43.402Z,15.84
2018-05-21T00:53:43.409Z,15.94
2018-05-21T00:54:43.419Z,16.15
2018-05-21T00:55:43.443Z,15.96
2018-05-21T00:56:43.422Z,16.05
2018-05-21T00:57:43.427Z,15.96
2018-05-21T00:58:43.448Z,15.97
2018-05-21T00:59:43.445Z,15.90
2018-05-21T01:00:43.441Z,15.93
2018-05-21T01:01:43.447Z,15.93
2018-05-21T01:02:43.449Z,16.11
2018-05-21T01:03:43.454Z,16.25
2018-05-21T01:04:43.463Z,16.04
2018-05-21T01:05:43.467Z,15.94
2018-05-21T01:06:43.478Z,15.90
2018-05-21T01:07:43.478Z,16.08
2018-05-21T01:08:43.484Z,16.02
2018-05-21T01:09:43.494Z,15.93
2018-05-21T01:10:43.490Z,16.05
2018-05-21T01:11:43.492Z,15.84
2018-05-21T01:12:43.505Z,15.84
2018-05-21T01:13:43.505Z,16.04
2018-05-21T01:14:43.510Z,15.76
2018-05-21T01:15:43.575Z,15.74
2018-05-21T01:16:43.518Z,15.94
2018-05-21T01:17:43.526Z,15.80
2018-05-21T01:18:43.530Z,15.76
2018-05-21T01:19:43.549Z,15.96
2018-05-21T01:20:43.539Z,15.76
2018-05-21T01:21:43.540Z,15.84
2018-05-21T01:22:43.559Z,15.96
2018-05-21T01:23:43.577Z,15.97
2018-05-21T01:24:43.556Z,15.86
2018-05-21T01:25:43.584Z,15.72
2018-05-21T01:26:43.586Z,15.74
2018-05-21T01:27:43.570Z,15.69
2018-05-21T01:28:43.577Z,15.87
2018-05-21T01:29:43.582Z,15.83
2018-05-21T01:30:43.584Z,15.67
2018-05-21T01:31:43.599Z,15.59
2018-05-21T01:32:43.604Z,15.49
2018-05-21T01:33:43.607Z,15.82
2018-05-21T01:34:43.635Z,15.92
2018-05-21T01:35:43.612Z,15.78
2018-05-21T01:36:43.615Z,15.71
2018-05-21T01:37:43.620Z,15.74
2018-05-21T01:38:43.635Z,15.87
2018-05-21T01:39:43.632Z,15.97
2018-05-21T01:40:43.633Z,15.84
2018-05-21T01:41:43.640Z,15.71
2018-05-21T01:42:43.644Z,15.67
2018-05-21T01:43:43.650Z,15.83
2018-05-21T01:44:43.656Z,15.96
2018-05-21T01:45:43.656Z,15.76
2018-05-21T01:46:43.664Z,15.64
2018-05-21T01:47:43.667Z,15.51
2018-05-21T01:48:43.672Z,15.60
2018-05-21T01:49:43.676Z,15.76
2018-05-21T01:50:43.678Z,15.80
2018-05-21T01:51:43.688Z,15.72
2018-05-21T01:52:43.700Z,15.80
2018-05-21T01:53:43.697Z,15.68
2018-05-21T01:54:43.701Z,15.71
2018-05-21T01:55:43.704Z,15.67
2018-05-21T01:56:43.712Z,15.50
2018-05-21T01:57:43.720Z,15.50
2018-05-21T01:58:43.717Z,15.69
2018-05-21T01:59:43.722Z,15.54
2018-05-21T02:00:43.730Z,15.54
2018-05-21T02:01:43.731Z,15.62
2018-05-21T02:02:43.740Z,15.56
2018-05-21T02:03:43.742Z,15.43
2018-05-21T02:04:43.748Z,15.46
2018-05-21T02:05:43.764Z,15.46
2018-05-21T02:06:43.756Z,15.49
2018-05-21T02:07:43.759Z,15.46
2018-05-21T02:08:43.766Z,15.39
2018-05-21T02:09:43.766Z,15.67
2018-05-21T02:10:43.772Z,15.72
2018-05-21T02:11:43.786Z,15.72
2018-05-21T02:12:43.780Z,15.75
2018-05-21T02:13:43.790Z,15.60
2018-05-21T02:14:43.789Z,15.50
2018-05-21T02:15:43.797Z,15.44
2018-05-21T02:16:43.809Z,15.74
2018-05-21T02:17:43.815Z,15.69
2018-05-21T02:18:43.808Z,15.47
2018-05-21T02:19:43.815Z,15.51
2018-05-21T02:20:43.820Z,15.28
2018-05-21T02:21:43.825Z,15.09
2018-05-21T02:22:43.834Z,15.29
2018-05-21T02:23:43.838Z,15.31
2018-05-21T02:24:43.841Z,15.29
2018-05-21T02:25:43.842Z,15.14
2018-05-21T02:26:43.846Z,15.35
2018-05-21T02:27:43.849Z,15.25
2018-05-21T02:28:43.859Z,15.36
2018-05-21T02:29:43.857Z,15.50
2018-05-21T02:30:43.871Z,15.31
2018-05-21T02:31:43.899Z,15.29
2018-05-21T02:32:43.872Z,15.47
2018-05-21T02:33:43.877Z,15.31
2018-05-21T02:34:43.880Z,15.10
2018-05-21T02:35:43.893Z,15.28
2018-05-21T02:36:43.888Z,15.27
2018-05-21T02:37:43.896Z,15.01
2018-05-21T02:38:43.898Z,15.34
2018-05-21T02:39:43.911Z,15.38
2018-05-21T02:40:43.908Z,15.27
2018-05-21T02:41:43.915Z,14.99
2018-05-21T02:42:43.921Z,14.92
2018-05-21T02:43:43.922Z,14.96
2018-05-21T02:44:43.924Z,15.10
2018-05-21T02:45:43.933Z,15.31
2018-05-21T02:46:43.931Z,15.49
2018-05-21T02:47:43.940Z,15.56
2018-05-21T02:48:43.940Z,15.60
2018-05-21T02:49:43.950Z,15.47
2018-05-21T02:50:43.949Z,15.39
2018-05-21T02:51:43.964Z,15.10
2018-05-21T02:52:43.972Z,15.03
2018-05-21T02:53:43.966Z,15.21
2018-05-21T02:54:43.977Z,15.09
2018-05-21T02:55:43.971Z,15.06
2018-05-21T02:56:43.976Z,15.14
2018-05-21T02:57:43.982Z,15.02
2018-05-21T02:58:43.991Z,14.94
2018-05-21T02:59:43.990Z,14.92
2018-05-21T03:00:43.997Z,15.03
2018-05-21T03:01:44.001Z,15.03
2018-05-21T03:02:44.003Z,15.10
2018-05-21T03:03:44.008Z,15.03
2018-05-21T03:04:44.026Z,14.89
2018-05-21T03:05:44.035Z,14.94
2018-05-21T03:06:44.026Z,15.19
2018-05-21T03:07:44.027Z,15.31
2018-05-21T03:08:44.027Z,15.29
2018-05-21T03:09:44.049Z,15.29
2018-05-21T03:10:44.037Z,15.34
2018-05-21T03:11:44.040Z,15.41
2018-05-21T03:12:44.046Z,15.46
2018-05-21T03:13:44.056Z,15.34
2018-05-21T03:14:44.058Z,15.31
2018-05-21T03:15:44.062Z,15.01
2018-05-21T03:16:44.061Z,14.83
2018-05-21T03:17:44.065Z,14.70
2018-05-21T03:18:44.071Z,14.69
2018-05-21T03:19:44.075Z,14.65
2018-05-21T03:20:44.079Z,14.88
2018-05-21T03:21:44.086Z,15.07
2018-05-21T03:22:44.089Z,15.07
2018-05-21T03:23:44.096Z,15.02
2018-05-21T03:24:44.127Z,15.16
2018-05-21T03:25:44.102Z,15.23
2018-05-21T03:26:44.113Z,15.01
2018-05-21T03:27:44.108Z,14.81
2018-05-21T03:28:44.113Z,14.65
2018-05-21T03:29:44.121Z,14.51
2018-05-21T03:30:44.121Z,14.69
2018-05-21T03:31:44.131Z,14.65
2018-05-21T03:32:44.129Z,14.84
2018-05-21T03:33:44.131Z,14.99
2018-05-21T03:34:44.141Z,14.91
2018-05-21T03:35:44.157Z,15.13
2018-05-21T03:36:44.144Z,14.81
2018-05-21T03:37:44.150Z,14.78
2018-05-21T03:38:44.152Z,14.64
2018-05-21T03:39:44.157Z,14.39
2018-05-21T03:40:44.161Z,14.28
2018-05-21T03:41:44.169Z,14.50
2018-05-21T03:42:44.207Z,14.83
2018-05-21T03:43:44.186Z,14.72
2018-05-21T03:44:44.192Z,14.72
2018-05-21T03:45:44.195Z,14.94
2018-05-21T03:46:44.189Z,14.81
2018-05-21T03:47:44.192Z,14.81
2018-05-21T03:48:44.200Z,15.07
2018-05-21T03:49:44.230Z,14.91
2018-05-21T03:50:44.204Z,14.58
2018-05-21T03:51:44.206Z,14.54
2018-05-21T03:52:44.214Z,14.43
2018-05-21T03:53:44.213Z,14.37
2018-05-21T03:54:44.220Z,14.51
2018-05-21T03:55:44.221Z,14.83
2018-05-21T03:56:44.237Z,14.70
2018-05-21T03:57:44.233Z,14.70
2018-05-21T03:58:44.236Z,14.60
2018-05-21T03:59:44.243Z,14.65
2018-05-21T04:00:44.240Z,14.73
2018-05-21T04:01:44.247Z,14.65
2018-05-21T04:02:44.252Z,14.51
2018-05-21T04:03:44.268Z,14.43
2018-05-21T04:04:44.265Z,14.45
2018-05-21T04:05:44.263Z,14.39
2018-05-21T04:06:44.265Z,14.29
2018-05-21T04:07:44.269Z,14.58
2018-05-21T04:08:44.278Z,14.61
2018-05-21T04:09:44.279Z,14.70
2018-05-21T04:10:44.283Z,14.84
2018-05-21T04:11:44.300Z,14.81
2018-05-21T04:12:44.328Z,14.64
2018-05-21T04:13:44.293Z,14.75
2018-05-21T04:14:44.298Z,14.60
2018-05-21T04:15:44.308Z,14.78
2018-05-21T04:16:44.303Z,14.70
2018-05-21T04:17:44.320Z,14.58
2018-05-21T04:18:44.331Z,14.80
2018-05-21T04:19:44.319Z,14.68
2018-05-21T04:20:44.327Z,14.69
2018-05-21T04:21:44.332Z,14.80
2018-05-21T04:22:44.332Z,14.91
2018-05-21T04:23:44.331Z,14.83
2018-05-21T04:24:44.337Z,14.65
2018-05-21T04:25:44.339Z,14.64
2018-05-21T04:26:44.349Z,14.50
2018-05-21T04:27:44.347Z,14.61
2018-05-21T04:28:44.351Z,14.43
2018-05-21T04:29:44.355Z,14.37
2018-05-21T04:30:44.361Z,14.58
2018-05-21T04:31:44.364Z,14.61
2018-05-21T04:32:44.373Z,14.39
2018-05-21T04:33:44.391Z,14.42
2018-05-21T04:34:44.376Z,14.32
2018-05-21T04:35:44.379Z,14.40
2018-05-21T04:36:44.396Z,14.28
2018-05-21T04:37:44.387Z,14.62
2018-05-21T04:38:44.400Z,14.78
2018-05-21T04:39:44.396Z,14.78
2018-05-21T04:40:44.403Z,14.69
2018-05-21T04:41:44.407Z,14.62
2018-05-21T04:42:44.409Z,14.68
2018-05-21T04:43:44.411Z,14.68
2018-05-21T04:44:44.415Z,14.60
2018-05-21T04:45:44.422Z,14.64
2018-05-21T04:46:44.424Z,14.58
2018-05-21T04:47:44.429Z,14.65
2018-05-21T04:48:45.463Z,14.73
2018-05-21T04:49:44.433Z,14.57
2018-05-21T04:50:44.442Z,14.55
2018-05-21T04:51:44.440Z,14.50
2018-05-21T04:52:44.445Z,14.60
2018-05-21T04:53:44.449Z,14.58
2018-05-21T04:54:44.451Z,14.70
2018-05-21T04:55:44.461Z,14.54
2018-05-21T04:56:44.461Z,14.55
2018-05-21T04:57:44.468Z,14.61
2018-05-21T04:58:44.467Z,14.62
2018-05-21T04:59:44.477Z,14.65
2018-05-21T05:00:44.478Z,14.77
2018-05-21T05:01:44.486Z,14.69
2018-05-21T05:02:44.483Z,14.91
2018-05-21T05:03:44.487Z,14.86
2018-05-21T05:04:44.512Z,14.86
2018-05-21T05:05:44.497Z,14.72
2018-05-21T05:06:44.496Z,14.73
2018-05-21T05:07:44.505Z,14.73
2018-05-21T05:08:44.504Z,14.73
2018-05-21T05:09:44.512Z,14.94
2018-05-21T05:10:44.514Z,14.83
2018-05-21T05:11:44.517Z,14.84
2018-05-21T05:12:44.523Z,14.92
2018-05-21T05:13:44.527Z,15.01
2018-05-21T05:14:44.553Z,14.91
2018-05-21T05:15:44.535Z,14.91
2018-05-21T05:16:44.537Z,14.98
2018-05-21T05:17:44.565Z,14.98
2018-05-21T05:18:44.553Z,15.23
2018-05-21T05:19:44.556Z,15.14
2018-05-21T05:20:44.555Z,15.31
2018-05-21T05:21:44.560Z,15.32
2018-05-21T05:22:44.564Z,15.35
2018-05-21T05:23:44.568Z,15.47
2018-05-21T05:24:44.575Z,15.49
2018-05-21T05:25:44.574Z,15.38
2018-05-21T05:26:44.657Z,15.44
2018-05-21T05:27:44.582Z,15.51
2018-05-21T05:28:44.593Z,15.57
2018-05-21T05:29:44.591Z,15.69
2018-05-21T05:30:44.598Z,15.69
2018-05-21T05:31:44.598Z,15.74
2018-05-21T05:32:44.606Z,15.62
2018-05-21T05:33:44.611Z,15.59
2018-05-21T05:34:44.613Z,15.60
2018-05-21T05:35:44.618Z,15.68
2018-05-21T05:36:44.621Z,15.72
2018-05-21T05:37:44.629Z,15.74
2018-05-21T05:38:44.654Z,15.83
2018-05-21T05:39:44.634Z,15.82
2018-05-21T05:40:44.642Z,15.92
2018-05-21T05:41:44.644Z,15.90
2018-05-21T05:42:44.653Z,15.96
2018-05-21T05:43:44.657Z,16.04
2018-05-21T05:44:44.653Z,16.09
2018-05-21T05:45:44.677Z,15.94
2018-05-21T05:46:44.664Z,16.07
2018-05-21T05:47:44.670Z,16.09
2018-05-21T05:48:44.772Z,16.14
2018-05-21T05:49:44.675Z,16.07
2018-05-21T05:50:44.682Z,16.17
2018-05-21T05:51:44.687Z,16.11
2018-05-21T05:52:44.698Z,16.15
2018-05-21T05:53:44.696Z,16.11
2018-05-21T05:54:44.704Z,16.23
2018-05-21T05:55:44.708Z,16.24
2018-05-21T05:56:44.710Z,16.25
2018-05-21T05:57:44.713Z,16.33
2018-05-21T05:58:44.722Z,16.33
2018-05-21T05:59:44.727Z,16.48
2018-05-21T06:00:44.755Z,16.49
2018-05-21T06:01:44.734Z,16.52
2018-05-21T06:02:44.737Z,16.57
2018-05-21T06:03:44.741Z,16.64
2018-05-21T06:04:44.747Z,16.71
2018-05-21T06:05:44.752Z,16.73
2018-05-21T06:06:44.755Z,16.79
2018-05-21T06:07:44.763Z,16.75
2018-05-21T06:08:44.764Z,16.73
2018-05-21T06:09:44.774Z,16.79
2018-05-21T06:10:44.778Z,16.91
2018-05-21T06:11:44.797Z,16.93
2018-05-21T06:12:44.811Z,16.83
2018-05-21T06:13:44.812Z,16.86
2018-05-21T06:14:44.834Z,16.78
2018-05-21T06:15:44.835Z,16.94
2018-05-21T06:16:44.810Z,16.86
2018-05-21T06:17:44.810Z,16.89
2018-05-21T06:18:44.825Z,16.94
2018-05-21T06:19:44.830Z,17.04
2018-05-21T06:20:44.825Z,17.14
2018-05-21T06:21:44.863Z,17.11
2018-05-21T06:22:44.840Z,17.22
2018-05-21T06:23:44.842Z,17.28
2018-05-21T06:24:44.855Z,17.33
2018-05-21T06:25:44.852Z,17.25
2018-05-21T06:26:44.867Z,17.33
2018-05-21T06:27:44.892Z,17.40
2018-05-21T06:28:44.867Z,17.38
2018-05-21T06:29:44.876Z,17.40
2018-05-21T06:30:44.891Z,17.41
2018-05-21T06:31:44.887Z,17.49
2018-05-21T06:32:44.890Z,17.51
2018-05-21T06:33:44.898Z,17.49
2018-05-21T06:34:44.904Z,17.56
2018-05-21T06:35:44.913Z,17.58
2018-05-21T06:36:44.915Z,17.52
2018-05-21T06:37:44.926Z,17.62
2018-05-21T06:38:44.925Z,17.64
2018-05-21T06:39:44.931Z,17.70
2018-05-21T06:40:44.936Z,17.75
2018-05-21T06:41:44.958Z,17.71
2018-05-21T06:42:44.955Z,17.66
2018-05-21T06:43:44.955Z,17.77
2018-05-21T06:44:44.957Z,17.72
2018-05-21T06:45:44.964Z,17.81
2018-05-21T06:46:44.977Z,17.86
2018-05-21T06:47:45.017Z,17.89
2018-05-21T06:48:44.979Z,17.97
2018-05-21T06:49:44.982Z,17.92
2018-05-21T06:50:44.990Z,17.99
2018-05-21T06:51:44.996Z,17.95
2018-05-21T06:52:45.001Z,18.11
2018-05-21T06:53:45.010Z,18.10
2018-05-21T06:54:45.014Z,18.12
2018-05-21T06:55:45.025Z,18.23
2018-05-21T06:56:45.023Z,18.20
2018-05-21T06:57:45.037Z,18.15
2018-05-21T06:58:45.034Z,18.20
2018-05-21T06:59:45.102Z,18.29
2018-05-21T07:00:45.052Z,18.35
2018-05-21T07:01:45.062Z,18.21
2018-05-21T07:02:45.065Z,18.44
2018-05-21T07:03:45.070Z,18.39
2018-05-21T07:04:45.073Z,18.39
2018-05-21T07:05:45.079Z,18.37
2018-05-21T07:06:45.083Z,18.51
2018-05-21T07:07:45.092Z,18.48
2018-05-21T07:08:45.099Z,18.48
2018-05-21T07:09:45.103Z,18.52
2018-05-21T07:10:45.111Z,18.55
2018-05-21T07:11:45.120Z,18.62
2018-05-21T07:12:45.122Z,18.48
2018-05-21T07:13:45.128Z,18.55
2018-05-21T07:14:45.140Z,18.69
2018-05-21T07:15:45.145Z,18.73
2018-05-21T07:16:45.148Z,18.80
2018-05-21T07:17:45.155Z,18.78
2018-05-21T07:18:45.162Z,18.70
2018-05-21T07:19:45.166Z,18.67
2018-05-21T07:20:45.190Z,18.63
2018-05-21T07:21:45.179Z,18.67
2018-05-21T07:22:45.187Z,18.69
2018-05-21T07:23:45.193Z,18.70
2018-05-21T07:24:45.201Z,18.78
2018-05-21T07:25:45.205Z,18.78
2018-05-21T07:26:45.213Z,18.87
2018-05-21T07:27:45.226Z,18.87
2018-05-21T07:28:45.228Z,18.92
2018-05-21T07:29:45.239Z,18.88
2018-05-21T07:30:45.236Z,18.92
2018-05-21T07:31:45.250Z,18.98
2018-05-21T07:32:45.252Z,19.06
2018-05-21T07:33:45.258Z,19.10
2018-05-21T07:34:45.268Z,19.06
2018-05-21T07:35:45.269Z,19.08
2018-05-21T07:36:45.281Z,19.08
2018-05-21T07:37:45.285Z,19.16
2018-05-21T07:38:45.295Z,19.16
2018-05-21T07:39:45.306Z,19.28
2018-05-21T07:40:45.307Z,19.36
2018-05-21T07:41:45.313Z,19.26
2018-05-21T07:42:45.319Z,19.39
2018-05-21T07:43:45.325Z,19.44
2018-05-21T07:44:45.404Z,19.48
2018-05-21T07:45:45.339Z,19.40
2018-05-21T07:46:45.346Z,19.47
2018-05-21T07:47:45.357Z,19.56
2018-05-21T07:48:45.363Z,19.48
2018-05-21T07:49:45.374Z,19.46
2018-05-21T07:50:45.381Z,19.54
2018-05-21T07:51:45.381Z,19.58
2018-05-21T07:52:45.395Z,19.62
2018-05-21T07:53:45.404Z,19.77
2018-05-21T07:54:45.404Z,19.74
2018-05-21T07:55:45.418Z,19.69
2018-05-21T07:56:45.418Z,19.68
2018-05-21T07:57:45.429Z,19.74
2018-05-21T07:58:45.432Z,19.83
2018-05-21T07:59:45.442Z,19.88
2018-05-21T08:00:45.449Z,19.74
2018-05-21T08:01:45.459Z,19.84
2018-05-21T08:02:45.467Z,19.88
2018-05-21T08:03:45.469Z,19.83
2018-05-21T08:04:45.479Z,19.99
2018-05-21T08:05:45.482Z,20.02
2018-05-21T08:06:45.494Z,19.99
2018-05-21T08:07:45.496Z,19.87
2018-05-21T08:08:45.507Z,20.01
2018-05-21T08:09:45.511Z,19.94
2018-05-21T08:10:45.520Z,19.98
2018-05-21T08:11:45.529Z,20.02
2018-05-21T08:12:45.538Z,19.98
2018-05-21T08:13:45.545Z,20.10
2018-05-21T08:14:45.663Z,19.98
2018-05-21T08:15:45.560Z,20.02
2018-05-21T08:16:45.569Z,20.06
2018-05-21T08:17:45.574Z,20.14
2018-05-21T08:18:45.578Z,20.24
2018-05-21T08:19:45.587Z,20.28
2018-05-21T08:20:45.604Z,20.26
2018-05-21T08:21:45.602Z,20.32
2018-05-21T08:22:45.620Z,20.39
2018-05-21T08:23:45.616Z,20.41
2018-05-21T08:24:45.638Z,20.24
2018-05-21T08:25:45.642Z,20.20
2018-05-21T08:26:45.670Z,20.23
2018-05-21T08:27:45.663Z,20.24
2018-05-21T08:28:45.657Z,20.32
2018-05-21T08:29:45.673Z,20.29
2018-05-21T08:30:45.675Z,20.36
2018-05-21T08:31:45.685Z,20.36
2018-05-21T08:32:45.690Z,20.47
2018-05-21T08:33:45.694Z,20.41
2018-05-21T08:34:45.705Z,20.17
2018-05-21T08:35:46.664Z,20.21
2018-05-21T08:36:45.724Z,20.24
2018-05-21T08:37:45.731Z,20.18
2018-05-21T08:38:45.740Z,20.17
2018-05-21T08:39:45.751Z,20.06
2018-05-21T08:40:45.750Z,20.18
2018-05-21T08:41:45.759Z,20.43
2018-05-21T08:42:45.827Z,20.41
2018-05-21T08:43:45.788Z,20.43
2018-05-21T08:44:45.800Z,20.38
2018-05-21T08:45:45.804Z,20.52
2018-05-21T08:46:45.801Z,20.61
2018-05-21T08:47:45.809Z,20.61
2018-05-21T08:48:45.905Z,20.36
2018-05-21T08:49:45.844Z,20.55
2018-05-21T08:50:45.835Z,20.55
2018-05-21T08:51:45.846Z,20.59
2018-05-21T08:52:45.846Z,20.74
2018-05-21T08:53:45.852Z,20.67
2018-05-21T08:54:45.864Z,20.77
2018-05-21T08:55:45.870Z,20.77
2018-05-21T08:56:45.880Z,20.84
2018-05-21T08:57:45.891Z,20.92
2018-05-21T08:58:45.910Z,20.95
2018-05-21T08:59:45.905Z,20.92
2018-05-21T09:00:45.912Z,20.84
2018-05-21T09:01:45.917Z,20.84
2018-05-21T09:02:45.926Z,20.88
2018-05-21T09:03:45.937Z,20.95
2018-05-21T09:04:45.995Z,20.99
2018-05-21T09:05:45.954Z,21.22
2018-05-21T09:06:45.968Z,21.22
2018-05-21T09:07:45.968Z,21.17
2018-05-21T09:08:45.984Z,21.09
2018-05-21T09:09:45.998Z,20.89
2018-05-21T09:10:46.010Z,20.82
2018-05-21T09:11:46.002Z,21.09
2018-05-21T09:12:46.009Z,21.10
2018-05-21T09:13:46.028Z,21.24
2018-05-21T09:14:46.038Z,20.97
2018-05-21T09:15:46.042Z,20.95
2018-05-21T09:16:46.044Z,20.94
2018-05-21T09:17:46.074Z,21.10
2018-05-21T09:18:46.070Z,21.14
2018-05-21T09:19:46.077Z,21.22
2018-05-21T09:20:46.081Z,21.17
2018-05-21T09:21:46.090Z,21.27
2018-05-21T09:22:46.096Z,21.49
2018-05-21T09:23:46.102Z,21.44
2018-05-21T09:24:46.114Z,21.49
2018-05-21T09:25:46.120Z,21.53
2018-05-21T09:26:46.135Z,21.59
2018-05-21T09:27:46.137Z,21.62
2018-05-21T09:28:46.144Z,21.74
2018-05-21T09:29:46.156Z,21.72
2018-05-21T09:30:46.164Z,21.67
2018-05-21T09:31:46.185Z,21.72
2018-05-21T09:32:46.179Z,21.90
2018-05-21T09:33:46.194Z,21.82
2018-05-21T09:34:46.211Z,21.67
2018-05-21T09:35:46.214Z,21.79
2018-05-21T09:36:46.225Z,21.71
2018-05-21T09:37:46.227Z,21.68
2018-05-21T09:38:46.233Z,21.83
2018-05-21T09:39:46.273Z,21.96
2018-05-21T09:40:46.250Z,21.99
2018-05-21T09:41:46.263Z,22.06
2018-05-21T09:42:46.312Z,22.12
2018-05-21T09:43:46.288Z,22.17
2018-05-21T09:44:46.297Z,22.02
2018-05-21T09:45:46.301Z,21.84
2018-05-21T09:46:46.310Z,21.96
2018-05-21T09:47:46.324Z,21.92
2018-05-21T09:48:46.344Z,21.86
2018-05-21T09:49:46.331Z,21.91
2018-05-21T09:50:46.344Z,21.84
2018-05-21T09:51:46.352Z,21.99
2018-05-21T09:52:46.360Z,21.96
2018-05-21T09:53:46.402Z,21.91
2018-05-21T09:54:46.387Z,21.99
2018-05-21T09:55:46.396Z,21.82
2018-05-21T09:56:46.397Z,21.84
2018-05-21T09:57:46.403Z,22.05
2018-05-21T09:58:46.416Z,22.14
2018-05-21T09:59:46.427Z,22.14
2018-05-21T10:00:46.434Z,22.24
2018-05-21T10:01:46.445Z,22.22
2018-05-21T10:02:46.450Z,22.28
2018-05-21T10:03:46.469Z,22.36
2018-05-21T10:04:46.473Z,22.36
2018-05-21T10:05:46.480Z,22.39
2018-05-21T10:06:46.497Z,22.52
2018-05-21T10:07:46.504Z,22.52
2018-05-21T10:08:46.517Z,22.58
2018-05-21T10:09:46.525Z,22.60
2018-05-21T10:10:46.525Z,22.58
2018-05-21T10:11:46.541Z,22.62
2018-05-21T10:12:46.569Z,22.75
2018-05-21T10:13:46.592Z,22.83
2018-05-21T10:14:46.581Z,22.85
2018-05-21T10:15:46.575Z,22.77
2018-05-21T10:16:46.589Z,22.79
2018-05-21T10:17:46.614Z,22.76
2018-05-21T10:18:46.609Z,22.83
2018-05-21T10:19:46.613Z,22.77
2018-05-21T10:20:46.626Z,22.91
2018-05-21T10:21:46.633Z,22.79
2018-05-21T10:22:46.644Z,22.73
2018-05-21T19:22:50.816Z,21.59
2018-05-21T19:23:50.745Z,21.71
2018-05-21T19:24:50.752Z,21.71
2018-05-21T19:25:50.756Z,21.79
2018-05-21T19:26:50.764Z,21.72
2018-05-21T19:27:50.784Z,21.74
2018-05-21T19:28:50.790Z,21.61
2018-05-21T19:29:50.802Z,21.64
2018-05-21T19:30:50.798Z,21.65
2018-05-21T19:31:50.809Z,21.74
2018-05-21T19:32:50.819Z,21.58
2018-05-21T19:33:50.828Z,21.50
2018-05-21T19:34:50.837Z,21.56
2018-05-21T19:35:50.846Z,21.56
2018-05-21T19:36:50.854Z,21.58
2018-05-21T19:37:50.863Z,21.49
2018-05-21T19:38:50.872Z,21.44
2018-05-21T19:39:50.884Z,21.46
2018-05-21T19:40:50.892Z,21.49
2018-05-21T19:41:50.899Z,21.46
2018-05-21T19:42:50.909Z,21.44
2018-05-21T19:43:50.919Z,21.31
2018-05-21T19:44:50.926Z,21.19
2018-05-21T19:45:50.935Z,21.21
2018-05-21T19:46:50.949Z,21.19
2018-05-21T19:47:50.953Z,21.21
2018-05-21T19:48:50.964Z,21.22
2018-05-21T19:49:50.969Z,21.21
2018-05-21T19:50:50.979Z,21.21
2018-05-21T19:51:50.992Z,21.21
2018-05-21T19:52:50.999Z,21.04
2018-05-21T19:53:51.011Z,20.92
2018-05-21T19:54:51.019Z,20.98
2018-05-21T19:55:51.024Z,21.06
2018-05-21T19:56:51.062Z,20.95
2018-05-21T19:57:51.042Z,20.99
2018-05-21T19:58:51.054Z,20.97
2018-05-21T19:59:51.113Z,20.99
2018-05-21T20:00:51.070Z,20.97
2018-05-21T20:01:51.078Z,21.01
2018-05-21T20:02:51.090Z,21.04
2018-05-21T20:03:51.097Z,20.98
2018-05-21T20:04:51.106Z,20.98
2018-05-21T20:05:51.113Z,20.98
2018-05-21T20:06:51.125Z,20.98
2018-05-21T20:07:51.134Z,21.06
2018-05-21T20:08:51.140Z,21.06
2018-05-21T20:09:51.148Z,20.99
2018-05-21T20:10:51.159Z,21.03
2018-05-21T20:11:51.170Z,20.92
2018-05-21T20:12:51.173Z,20.97
2018-05-21T20:13:51.182Z,20.79
2018-05-21T20:14:51.193Z,20.74
2018-05-21T20:15:51.221Z,20.77
2018-05-21T20:16:51.213Z,20.76
2018-05-21T20:17:51.220Z,20.67
2018-05-21T20:18:51.237Z,20.66
2018-05-21T20:19:51.235Z,20.50
2018-05-21T20:20:51.242Z,20.59
2018-05-21T20:21:51.258Z,20.51
2018-05-21T20:22:51.269Z,20.39
2018-05-21T20:23:51.274Z,20.41
2018-05-21T20:24:51.281Z,20.28
2018-05-21T20:25:51.289Z,20.38
2018-05-21T20:26:51.297Z,20.23
2018-05-21T20:27:51.306Z,20.20
2018-05-21T20:28:51.316Z,20.23
2018-05-21T20:29:51.323Z,20.38
2018-05-21T20:30:51.335Z,20.36
2018-05-21T20:31:51.341Z,20.39
2018-05-21T20:32:51.349Z,20.39
2018-05-21T20:33:51.357Z,20.29
2018-05-21T20:34:51.365Z,20.42
2018-05-21T20:35:51.370Z,20.38
2018-05-21T20:36:51.381Z,20.41
2018-05-21T20:37:51.388Z,20.39
2018-05-21T20:38:51.399Z,20.23
2018-05-21T20:39:51.406Z,20.26
2018-05-21T20:40:51.411Z,20.26
2018-05-21T20:41:51.422Z,20.29
2018-05-21T20:42:51.431Z,20.08
2018-05-21T20:43:51.437Z,20.18
2018-05-21T20:44:51.444Z,20.23
2018-05-21T20:45:51.459Z,20.28
2018-05-21T20:46:51.460Z,20.05
2018-05-21T20:47:51.479Z,20.13
2018-05-21T20:48:51.487Z,20.24
2018-05-21T20:49:51.486Z,20.23
2018-05-21T20:50:51.497Z,20.14
2018-05-21T20:51:51.501Z,20.10
2018-05-21T20:52:51.514Z,20.03
2018-05-21T20:53:51.515Z,20.11
2018-05-21T20:54:51.525Z,20.01
2018-05-21T20:55:51.533Z,20.01
2018-05-21T20:56:51.539Z,19.84
2018-05-21T20:57:51.547Z,19.96
2018-05-21T20:58:51.560Z,19.95
2018-05-21T20:59:51.573Z,19.66
2018-05-21T21:00:51.572Z,19.73
2018-05-21T21:01:51.585Z,19.80
2018-05-21T21:02:51.593Z,19.87
2018-05-21T21:03:51.600Z,19.81
2018-05-21T21:04:51.613Z,19.76
2018-05-21T21:05:51.619Z,19.76
2018-05-21T21:06:51.623Z,19.78
2018-05-21T21:07:51.632Z,19.56
2018-05-21T21:08:51.638Z,19.58
2018-05-21T21:09:51.649Z,19.73
2018-05-21T21:10:51.654Z,19.68
2018-05-21T21:11:51.666Z,19.69
2018-05-21T21:12:51.676Z,19.61
2018-05-21T21:13:51.677Z,19.74
2018-05-21T21:14:51.687Z,19.80
2018-05-21T21:15:51.696Z,19.86
2018-05-21T21:16:51.702Z,19.86
2018-05-21T21:17:51.706Z,19.76
2018-05-21T21:18:51.717Z,19.77
2018-05-21T21:19:51.729Z,19.87
2018-05-21T21:20:51.733Z,19.91
2018-05-21T21:21:51.761Z,19.88
2018-05-21T21:22:51.746Z,19.81
2018-05-21T21:23:51.763Z,19.73
2018-05-21T21:24:51.768Z,19.83
2018-05-21T21:25:51.775Z,19.88
2018-05-21T21:26:51.782Z,19.86
2018-05-21T21:27:51.788Z,19.74
2018-05-21T21:28:51.795Z,19.77
2018-05-21T21:29:51.800Z,19.74
2018-05-21T21:30:51.813Z,19.83
2018-05-21T21:31:51.824Z,19.87
2018-05-21T21:32:51.854Z,19.87
2018-05-21T21:33:51.833Z,19.77
2018-05-21T21:34:51.842Z,19.74
2018-05-21T21:35:51.852Z,19.62
2018-05-21T21:36:51.856Z,19.68
2018-05-21T21:37:51.867Z,19.77
2018-05-21T21:38:51.871Z,19.69
2018-05-21T21:39:51.879Z,19.61
2018-05-21T21:40:51.888Z,19.74
2018-05-21T21:41:51.902Z,19.69
2018-05-21T21:42:51.903Z,19.76
2018-05-21T21:43:51.915Z,19.76
2018-05-21T21:44:51.920Z,19.77
2018-05-21T21:45:51.929Z,19.71
2018-05-21T21:46:51.930Z,19.66
2018-05-21T21:47:51.938Z,19.65
2018-05-21T21:48:51.953Z,19.73
2018-05-21T21:49:51.959Z,19.74
2018-05-21T21:50:51.962Z,19.68
2018-05-21T21:51:51.971Z,19.77